MSC Vanessa — HOWD — position and weather

sailwx.info

Track history (hours):
 
Tides and Currents Weather Stations Pressure Air Temp Water Temp Dewpoint Dewpoint Depression Visibility Wind Speed Wind Dir Waves Ship Positions

MSC Vanessa

Last reported at 2016-Aug-29 00:13 UTC. Time now 2016-Aug-29 07:14 UTC.
Position S 23°48' W 043°50'.

Length 300 m; draft 12.6 m.

Type: Ship (hazmat cat D). MMSI: 356946000.

Date/timePositionNaut miles runAvg speedWind from/ knotsBaromVisibWave heightAir tempDewpointWater temp
2016-Aug-29 00:13S 23°48' W 043°50'1116.1
2016-Aug-28 23:34S 23°53' W 044°01'1716.6
2016-Aug-28 22:33S 23°59' W 044°18'1616.6
2016-Aug-28 21:33S 24°05' W 044°34'1616.3
2016-Aug-28 20:33S 24°11' W 044°51'1616.4
2016-Aug-28 19:33S 24°17' W 045°08'1515.1
2016-Aug-28 18:33S 24°23' W 045°23'1413.9
2016-Aug-28 17:33S 24°25' W 045°38'1414.5
2016-Aug-28 16:33S 24°25' W 045°54'1414.3
2016-Aug-28 15:33S 24°26' W 046°10'1414.1
2016-Aug-28 14:33S 24°16' W 046°21'1212.1
2016-Aug-28 13:33S 24°04' W 046°22'7 6.8
2016-Aug-28 12:33S 23°58' W 046°18'4 1.9
2016-Aug-28 10:29S 23°55' W 046°21'0 0.0
2016-Aug-28 09:32S 23°55' W 046°21'0 0.0
2016-Aug-28 08:29S 23°55' W 046°21'0 0.0
2016-Aug-28 07:23S 23°55' W 046°21'0 0.0
2016-Aug-28 06:29S 23°55' W 046°21'0 0.0
2016-Aug-28 04:11S 23°55' W 046°21'0 0.0
2016-Aug-27 08:23S 23°55' W 046°21'0 0.0
2016-Aug-27 07:29S 23°55' W 046°21'0 0.0
2016-Aug-27 06:23S 23°55' W 046°21'3 1.5
2016-Aug-27 04:33S 23°57' W 046°19'6 6.0
2016-Aug-27 03:33S 24°02' W 046°21'9 9.4
2016-Aug-27 02:33S 24°11' W 046°26'1212.2
2016-Aug-27 01:33S 24°22' W 046°30'1413.8
2016-Aug-27 00:33S 24°34' W 046°38'1413.7
2016-Aug-26 23:33S 24°45' W 046°47'1414.2
2016-Aug-26 22:33S 24°57' W 046°56'1414.3
2016-Aug-26 21:33S 25°08' W 047°05'1414.4
2016-Aug-26 20:33S 25°20' W 047°15'3414.8
2016-Aug-26 18:17S 25°47' W 047°37'82 2.7
2016-Aug-25 11:31S 26°53' W 048°31'4 0.2
2016-Aug-24 15:20S 26°57' W 048°29'6 7.7
2016-Aug-24 14:30S 27°02' W 048°25'1413.9
2016-Aug-24 13:28S 27°13' W 048°14'1314.3
2016-Aug-24 12:33S 27°26' W 048°13'1515.2
2016-Aug-24 11:33S 27°41' W 048°17'1515.2
2016-Aug-24 10:33S 27°56' W 048°22'  
Track history (hours):
 
Tides and Currents Weather Stations Pressure Air Temp Water Temp Dewpoint Dewpoint Depression Visibility Wind Speed Wind Dir Waves Ship Positions

MSC Vanessa

Last reported at 2016-Aug-29 00:13 UTC. Time now 2016-Aug-29 07:14 UTC.
Position S 23°48' W 043°50'.

Length 300 m; draft 12.6 m.

Type: Ship (hazmat cat D). MMSI: 356946000.

Date/timePositionNaut miles runAvg speedWind from/ knotsBaromVisibWave heightAir tempDewpointWater temp
2016-Aug-29 00:13S 23°48' W 043°50'1116.1
2016-Aug-28 23:34S 23°53' W 044°01'1716.6
2016-Aug-28 22:33S 23°59' W 044°18'1616.6
2016-Aug-28 21:33S 24°05' W 044°34'1616.3
2016-Aug-28 20:33S 24°11' W 044°51'1616.4
2016-Aug-28 19:33S 24°17' W 045°08'1515.1
2016-Aug-28 18:33S 24°23' W 045°23'1413.9
2016-Aug-28 17:33S 24°25' W 045°38'1414.5
2016-Aug-28 16:33S 24°25' W 045°54'1414.3
2016-Aug-28 15:33S 24°26' W 046°10'1414.1
2016-Aug-28 14:33S 24°16' W 046°21'1212.1
2016-Aug-28 13:33S 24°04' W 046°22'7 6.8
2016-Aug-28 12:33S 23°58' W 046°18'4 1.9
2016-Aug-28 10:29S 23°55' W 046°21'0 0.0
2016-Aug-28 09:32S 23°55' W 046°21'0 0.0
2016-Aug-28 08:29S 23°55' W 046°21'0 0.0
2016-Aug-28 07:23S 23°55' W 046°21'0 0.0
2016-Aug-28 06:29S 23°55' W 046°21'0 0.0
2016-Aug-28 04:11S 23°55' W 046°21'0 0.0
2016-Aug-27 08:23S 23°55' W 046°21'0 0.0
2016-Aug-27 07:29S 23°55' W 046°21'0 0.0
2016-Aug-27 06:23S 23°55' W 046°21'3 1.5
2016-Aug-27 04:33S 23°57' W 046°19'6 6.0
2016-Aug-27 03:33S 24°02' W 046°21'9 9.4
2016-Aug-27 02:33S 24°11' W 046°26'1212.2
2016-Aug-27 01:33S 24°22' W 046°30'1413.8
2016-Aug-27 00:33S 24°34' W 046°38'1413.7
2016-Aug-26 23:33S 24°45' W 046°47'1414.2
2016-Aug-26 22:33S 24°57' W 046°56'1414.3
2016-Aug-26 21:33S 25°08' W 047°05'1414.4
2016-Aug-26 20:33S 25°20' W 047°15'3414.8
2016-Aug-26 18:17S 25°47' W 047°37'82 2.7
2016-Aug-25 11:31S 26°53' W 048°31'4 0.2
2016-Aug-24 15:20S 26°57' W 048°29'6 7.7
2016-Aug-24 14:30S 27°02' W 048°25'1413.9
2016-Aug-24 13:28S 27°13' W 048°14'1314.3
2016-Aug-24 12:33S 27°26' W 048°13'1515.2
2016-Aug-24 11:33S 27°41' W 048°17'1515.2
2016-Aug-24 10:33S 27°56' W 048°22'  

Dump ship's entire track history